Date,TemperatureHighF,TemperatureAvgF,TemperatureLowF,DewpointHighF,DewpointAvgF,DewpointLowF,HumidityHigh,HumidityAvg,HumidityLow,PressureMaxIn,PressureMinIn,WindSpeedMaxMPH,WindSpeedAvgMPH,GustSpeedMaxMPH,PrecipitationSumIn
2013-1-1,57.5,38.7,32.9,32.2,28.8,22.2,86,70,26,30.22,30.14,3,0,3,0.00
2013-1-3,67.9,46.8,34.4,27.0,21.2,15.5,60,40,15,30.17,30.02,7,0,7,0.00
2013-1-4,66.3,45.5,31.9,25.2,18.8,10.0,62,40,12,30.26,30.14,5,0,5,0.00
2013-1-5,67.6,48.4,34.0,25.0,19.6,11.2,58,36,12,30.29,30.13,7,0,7,0.00
2013-1-6,57.6,46.1,37.2,41.1,35.5,24.5,91,68,44,30.17,29.97,7,0,7,0.08
2013-1-7,62.9,48.1,35.3,40.0,28.9,17.4,93,54,20,30.07,29.93,26,1,26,0.00
2013-1-8,77.0,55.1,40.6,38.3,30.7,22.6,65,42,20,30.08,29.97,6,0,6,0.00
2013-1-9,50.8,47.3,43.5,39.1,34.9,33.4,77,62,53,30.05,29.94,2,0,2,0.00
2013-1-10,53.5,45.2,34.4,45.8,35.2,20.1,88,69,42,30.03,29.84,11,0,11,0.01
2013-1-11,52.8,39.7,27.8,28.4,21.1,16.9,80,50,27,30.17,30.02,10,0,10,0.00
2013-1-12,53.9,38.0,27.9,28.5,18.4,8.6,71,50,17,30.14,30.03,6,0,6,0.00
2013-1-13,54.5,38.1,25.7,22.9,16.5,7.5,68,45,20,30.17,30.02,12,0,12,0.00
2013-1-14,51.9,37.4,24.5,14.7,6.4,-1.5,54,30,12,30.32,30.12,17,1,17,0.00
2013-1-15,62.4,42.5,28.4,25.8,17.5,8.6,56,39,20,30.43,30.28,6,0,6,0.00
2013-1-16,42.3,38.9,37.8,26.9,24.4,23.4,57,56,54,30.32,30.14,1,0,2,0.00
2013-1-17,74.9,53.0,38.9,29.4,23.1,19.4,58,35,13,30.19,30.05,6,0,6,0.00
2013-1-18,75.6,53.3,39.5,30.6,24.0,19.7,53,35,14,30.16,30.04,7,0,7,0.00
2013-1-19,76.0,54.2,37.3,31.4,22.1,16.9,54,33,11,30.19,30.01,7,0,7,0.00
2013-1-20,77.4,56.3,39.3,31.2,22.0,15.6,46,29,11,30.15,29.98,3,0,3,0.00
2013-1-22,79.8,64.3,48.6,26.5,22.1,11.4,40,23,9,30.08,29.98,8,0,8,0.00
2013-1-23,77.0,62.7,48.9,44.6,32.2,22.1,62,33,19,30.06,29.97,10,0,10,0.00
2013-1-24,64.3,55.9,50.8,56.0,49.8,42.5,93,81,62,30.17,30.05,4,0,4,0.29
2013-1-25,59.2,56.1,54.1,57.2,53.7,50.3,94,92,85,30.12,29.91,3,0,3,0.51
2013-1-26,64.0,57.2,52.0,56.9,53.7,50.6,95,89,70,29.94,29.83,8,0,8,0.02
2013-1-27,59.8,52.6,39.3,53.0,45.1,34.0,91,76,56,30.00,29.90,14,1,14,0.14
2013-1-28,52.2,40.4,36.2,41.4,35.4,27.7,93,84,41,30.14,29.97,14,1,14,0.02
2013-1-29,58.3,45.2,32.5,38.1,32.4,26.0,82,63,39,30.20,30.11,6,0,6,0.00
2013-1-30,69.9,50.9,37.6,40.5,37.1,33.3,86,63,28,30.31,30.18,6,0,6,0.00
2013-1-31,76.8,56.6,40.6,41.3,36.7,33.7,80,53,22,30.22,30.05,5,0,5,0.00
2013-2-1,79.2,59.4,43.8,40.8,36.4,31.0,71,47,18,30.15,30.05,7,0,7,0.00
2013-2-2,76.3,67.0,58.1,46.9,39.3,32.8,65,38,22,30.16,30.05,3,0,3,0.00
2013-2-3,71.1,57.9,50.7,49.2,46.5,42.0,83,68,40,30.09,30.00,4,0,4,0.01
2013-2-4,75.4,57.7,44.3,46.5,41.8,37.4,81,60,27,30.03,29.92,8,0,8,0.00
2013-2-5,64.2,51.8,41.6,48.2,43.4,35.6,86,74,52,30.05,29.93,8,0,8,0.00
2013-2-6,63.9,52.6,43.6,46.7,44.6,40.0,90,75,51,30.08,29.94,7,0,7,0.00
2013-2-7,66.1,50.9,37.3,47.2,42.0,34.9,93,74,48,30.10,29.93,8,0,8,0.00
2013-2-8,48.9,41.4,35.5,40.3,37.0,33.1,93,85,71,29.96,29.87,7,0,7,0.61
2013-2-9,52.0,40.6,31.0,41.6,34.1,29.2,94,79,48,30.08,29.90,7,0,7,0.01
2013-2-10,54.2,44.4,34.0,38.5,34.3,29.0,86,69,49,30.08,29.98,5,0,5,0.01
2013-2-11,42.5,41.1,39.8,36.1,34.9,33.8,79,78,78,30.05,30.03,0,0,0,0.00
2013-2-13,39.1,37.3,36.3,27.6,25.7,24.7,65,62,58,30.21,30.19,1,0,1,0.00
2013-2-14,77.4,63.3,46.5,37.8,29.7,23.6,54,30,18,30.13,30.01,7,0,7,0.00
2013-2-15,78.3,57.4,41.9,34.4,29.4,23.4,59,38,15,30.19,30.09,10,0,10,0.00
2013-2-16,80.5,58.1,43.5,30.7,23.5,17.2,49,29,12,30.17,29.93,11,0,11,0.00
2013-2-17,72.5,54.4,41.3,40.6,29.9,22.0,78,43,16,29.97,29.85,7,0,7,0.00
2013-2-18,64.3,48.6,35.5,43.3,38.2,31.5,92,70,38,30.05,29.90,6,0,6,0.00
2013-2-19,43.1,41.2,38.0,40.4,38.6,35.2,91,90,90,29.73,29.66,6,0,6,0.49
2013-2-20,55.0,44.3,35.5,39.5,34.9,31.5,93,72,43,29.97,29.63,10,1,10,0.09
2013-2-21,58.6,45.2,35.0,37.8,32.5,26.6,88,63,30,30.07,29.93,8,0,8,0.00
2013-2-22,65.3,49.3,35.5,37.9,30.6,23.9,81,54,22,30.18,30.07,8,0,8,0.00
2013-2-23,66.0,55.1,36.0,39.5,32.7,27.3,80,45,24,30.10,29.86,22,1,22,0.00
2013-2-24,66.0,52.2,37.9,33.0,12.3,0.9,59,22,8,30.17,29.93,17,1,17,0.00
2013-2-25,69.1,51.3,34.9,30.0,21.0,15.8,59,34,14,30.29,30.01,8,0,8,0.00
2013-2-26,74.4,61.1,43.6,28.8,22.3,16.4,47,25,15,30.06,29.87,10,1,10,0.00
2013-2-27,73.3,71.0,65.4,24.7,22.1,17.5,18,16,14,30.17,30.08,11,2,11,0.00
2013-3-1,84.0,71.3,51.7,31.8,28.5,23.7,44,22,13,30.20,30.00,13,1,13,0.00
2013-3-2,88.0,64.4,47.0,35.8,30.2,20.3,50,31,11,30.16,29.90,7,0,7,0.00
2013-3-3,75.4,60.8,48.6,43.6,34.0,27.5,68,39,18,30.00,29.80,10,0,10,0.00
2013-3-4,67.1,52.6,45.7,48.5,44.2,40.3,87,74,47,29.99,29.82,7,0,7,0.00
2013-3-5,72.0,55.9,41.5,50.3,46.1,39.1,92,72,44,30.08,29.86,7,0,7,0.00
2013-3-6,63.2,53.0,46.8,47.0,43.1,39.9,88,71,44,30.09,29.91,10,0,10,0.01
2013-3-7,53.5,48.9,42.8,48.3,45.4,40.4,93,88,74,29.93,29.81,5,0,5,0.27
2013-3-8,53.5,44.7,40.2,44.2,40.1,35.6,92,85,51,30.02,29.68,10,0,10,0.60
2013-3-9,53.5,45.3,43.5,46.3,42.8,41.1,94,91,70,30.11,29.98,5,0,5,0.05
2013-3-13,90.7,75.2,59.6,49.2,42.3,31.2,55,35,12,29.90,29.78,6,0,8,0.00
2013-3-14,94.3,71.1,53.6,48.2,40.8,31.5,58,38,14,29.95,29.72,10,0,10,0.00
2013-3-15,89.5,68.0,53.5,47.3,41.8,35.9,65,43,16,29.87,29.66,8,0,8,0.00
2013-3-16,80.1,61.8,46.7,48.4,43.0,38.4,81,54,24,29.82,29.63,10,0,10,0.00
2013-3-17,74.9,58.3,47.7,51.6,47.2,42.5,93,70,32,29.89,29.72,8,0,8,0.00
2013-3-18,70.4,57.4,48.0,51.0,48.3,44.6,91,74,48,29.96,29.79,5,0,10,0.00
2013-3-19,71.6,57.4,47.1,51.3,48.3,44.2,91,74,42,30.01,29.88,7,0,7,0.00
2013-3-20,74.0,60.5,47.7,50.5,47.6,43.2,90,66,34,29.98,29.79,8,0,8,0.00
2013-3-21,76.8,60.5,47.7,50.0,47.5,44.8,92,66,34,29.80,29.60,8,0,8,0.00
2013-3-22,52.0,49.5,47.6,47.0,45.5,44.2,89,86,83,29.64,29.59,1,0,1,0.00
2013-3-25,79.0,76.8,74.7,42.0,40.8,39.5,28,28,27,29.76,29.75,1,0,5,0.00
2013-4-2,78.3,67.9,53.2,50.4,48.1,43.0,82,52,30,29.92,29.77,10,1,10,0.00
2013-4-3,88.8,65.6,47.1,50.4,46.0,36.9,89,57,17,29.97,29.74,10,0,10,0.00
2013-4-4,82.8,64.4,51.0,54.9,48.0,16.5,91,62,20,29.95,29.79,10,0,10,0.00
2013-4-5,72.3,59.7,49.4,52.5,50.4,46.3,91,73,46,29.95,29.80,8,0,8,0.00
2013-4-6,76.3,62.3,53.6,52.5,50.9,48.2,87,68,38,29.92,29.72,11,0,11,0.00
2013-4-7,75.8,58.3,49.8,53.1,49.4,7.7,90,74,16,29.82,29.64,7,0,7,0.00
2013-4-9,74.7,65.2,48.8,33.3,25.5,15.3,54,25,11,29.89,29.54,27,2,27,0.00
2013-4-10,49.6,48.3,47.4,33.7,31.8,29.9,54,53,50,29.89,29.83,6,0,6,0.00
2013-4-11,85.3,75.9,59.8,48.3,40.5,32.8,65,32,17,29.70,29.52,10,1,10,0.00
2013-4-12,60.3,57.5,56.5,50.9,49.8,49.4,77,76,71,29.68,29.66,0,0,0,0.00
2013-4-13,78.1,61.6,52.2,58.7,51.3,45.2,92,71,41,29.74,29.45,8,0,8,0.00
2013-4-14,60.4,55.3,51.6,51.5,45.8,8.8,89,73,17,29.75,29.60,8,0,220,0.02
2013-4-17,72.3,57.1,41.2,36.6,22.3,9.8,75,31,11,30.06,29.86,28,3,28,0.00
2013-4-18,81.2,60.2,40.8,28.9,20.6,4.7,56,27,9,30.18,29.96,8,1,8,0.00
2013-4-19,89.0,65.3,43.3,35.7,23.5,15.9,46,24,9,30.10,29.76,11,1,11,0.00
2013-4-20,96.3,70.4,49.1,46.2,35.4,26.4,59,32,11,29.79,29.57,7,0,7,0.00
2013-4-21,92.9,71.2,51.4,46.5,39.8,28.9,64,37,14,29.86,29.46,8,0,8,0.00
2013-4-22,85.7,65.1,48.2,52.0,45.4,38.9,84,55,21,29.82,29.50,7,1,7,0.00
2013-4-23,88.8,68.2,52.8,53.4,47.0,21.0,85,54,21,29.78,29.38,7,1,7,0.00
2013-4-24,76.3,61.5,54.4,54.1,50.4,45.1,85,68,43,29.81,29.61,8,1,8,0.00
2013-4-25,73.0,60.8,52.5,48.9,46.6,44.8,76,61,39,29.99,29.74,8,0,8,0.00
2013-4-26,87.4,64.4,45.4,50.1,46.0,42.1,89,58,22,30.05,29.87,8,0,8,0.00
2013-4-27,92.9,69.9,49.2,54.2,47.3,40.4,78,50,21,29.99,29.73,11,0,11,0.00
2013-4-28,93.8,72.3,52.8,55.4,49.6,44.4,83,51,20,29.80,29.37,10,0,10,0.00
2013-4-29,71.9,63.5,59.3,54.4,52.7,51.2,76,68,54,29.57,29.54,3,0,3,0.00
2013-4-30,82.2,64.2,53.5,54.4,51.8,49.5,89,67,34,29.69,29.51,10,1,10,0.00
2013-5-1,93.6,70.8,58.0,53.7,45.8,19.8,79,49,10,29.87,29.62,10,0,220,0.00
2013-5-2,94.3,71.8,51.0,40.8,25.2,13.3,64,24,6,29.97,29.78,11,1,11,0.00
2013-5-3,98.2,73.8,53.1,34.3,25.4,17.7,39,19,7,29.82,29.48,10,1,10,0.00
2013-5-4,88.8,69.1,52.5,50.6,36.5,-0.9,75,34,4,29.58,29.39,12,1,12,0.00
2013-5-5,73.2,61.4,55.3,50.2,46.8,44.4,75,60,38,29.79,29.54,7,1,7,0.00
2013-5-6,62.9,57.4,54.5,55.8,50.4,46.8,87,78,62,29.89,29.73,8,0,8,0.14
2013-5-7,72.0,59.1,51.3,52.1,46.0,3.6,88,65,13,29.94,29.82,10,0,10,0.04
2013-5-8,73.5,61.2,53.1,50.3,47.6,44.6,84,62,40,29.96,29.85,11,1,11,0.00
2013-5-9,78.6,61.5,46.4,56.2,49.1,43.0,89,67,35,29.99,29.81,10,0,10,0.02
2013-5-10,90.1,69.9,54.8,57.4,53.6,50.0,91,62,27,29.94,29.70,11,1,11,0.00
2013-5-11,101.5,77.5,55.3,55.2,49.9,38.7,85,49,12,29.86,29.65,10,1,10,0.00
2013-5-13,104.9,80.2,64.2,48.4,45.1,40.6,51,33,12,29.70,29.55,10,0,10,0.00
2013-5-14,62.8,61.1,60.1,48.7,48.1,47.6,64,62,60,29.95,29.94,0,0,0,0.00
2013-5-15,88.4,68.6,51.7,55.4,49.4,45.5,82,55,26,30.00,29.90,7,1,8,0.00
2013-5-16,60.4,57.7,55.4,52.5,51.7,50.9,86,80,75,29.93,29.90,1,0,1,0.00
2013-5-19,89.9,69.4,53.2,55.0,52.4,49.6,91,60,27,29.97,29.83,10,1,10,0.00
2013-5-20,99.0,74.9,53.6,62.8,49.1,34.1,89,52,11,29.93,29.81,11,1,11,0.00
2013-5-21,94.3,72.7,55.4,57.7,52.1,41.6,89,55,17,29.91,29.77,11,0,11,0.00
2013-5-22,86.3,69.6,58.4,56.9,53.2,46.8,87,60,29,29.81,29.69,11,1,11,0.00
2013-5-23,80.9,66.3,57.5,51.9,49.3,46.7,76,57,31,29.91,29.74,12,1,12,0.00
2013-5-24,83.8,66.8,57.2,52.0,49.7,45.7,75,57,29,29.96,29.87,10,1,10,0.00
2013-5-25,82.4,64.2,52.3,54.8,48.3,41.3,88,61,27,30.01,29.92,7,1,8,0.00
2013-5-26,81.1,64.8,53.2,53.1,50.3,42.9,88,63,33,30.04,29.94,9,1,9,0.00
2013-5-27,85.9,66.3,52.5,55.2,51.8,47.8,89,63,28,30.00,29.82,12,1,12,0.00
2013-5-28,80.1,66.2,59.3,56.9,53.8,1.3,82,67,7,29.86,29.73,10,0,10,0.00
2013-5-29,91.0,71.7,53.3,58.2,53.5,49.6,91,58,26,29.80,29.69,8,0,8,0.00
2013-5-30,93.6,72.6,55.6,57.2,54.5,51.3,88,58,25,29.84,29.73,12,0,12,0.00
2013-5-31,90.1,67.5,58.0,60.1,57.0,53.9,89,72,33,29.88,29.79,10,0,10,0.00
2013-6-1,107.4,79.2,57.8,60.9,56.5,45.9,88,54,14,29.82,29.66,10,0,10,0.00
2013-6-2,92.9,73.2,59.6,61.9,58.2,54.9,91,64,32,29.78,29.69,11,1,11,0.00
2013-6-3,78.1,62.9,58.1,57.3,55.3,53.9,88,77,44,29.86,29.75,7,0,7,0.00
2013-6-5,89.9,70.9,56.7,57.8,53.5,45.1,89,60,22,29.99,29.83,8,0,8,0.11
2013-6-6,91.4,72.1,54.1,63.6,54.2,48.2,91,59,25,29.92,29.81,11,1,11,0.00
2013-6-7,92.9,77.5,57.5,59.6,55.9,51.4,91,51,27,29.86,29.72,7,1,7,0.00
2013-6-8,94.3,72.3,57.2,62.9,56.7,53.7,90,63,27,29.86,29.74,7,0,7,0.00
2013-6-9,94.9,71.6,57.3,60.4,55.6,50.5,90,64,26,29.89,29.78,8,0,8,0.00
2013-6-10,88.8,70.0,56.3,58.2,53.8,48.4,89,61,27,29.92,29.83,8,0,10,0.00
2013-6-11,99.0,75.2,54.5,58.9,52.2,43.5,85,53,16,29.92,29.81,8,0,8,0.00
2013-6-12,88.0,73.5,61.5,60.2,57.0,54.4,81,59,37,29.95,29.86,11,0,11,0.00
2013-6-13,93.2,72.8,58.7,59.7,55.1,16.0,88,59,18,29.98,29.83,27,1,27,0.00
2013-6-14,94.0,71.4,52.9,61.3,53.8,49.5,90,59,23,29.89,29.77,10,1,10,0.00
2013-6-15,90.3,70.0,56.2,59.1,53.4,47.0,88,61,23,29.94,29.84,9,0,9,0.00
2013-6-16,92.9,70.9,52.8,57.7,52.7,46.3,91,59,22,30.00,29.90,8,0,8,0.00
2013-6-17,95.6,74.2,55.1,56.4,52.6,48.0,85,53,22,29.95,29.83,12,0,12,0.00
2013-6-18,93.8,73.9,57.0,57.9,52.4,42.8,86,53,21,29.88,29.78,13,1,13,0.00
2013-6-19,90.5,71.7,55.1,59.0,54.2,50.0,90,59,27,29.84,29.75,10,1,10,0.00
2013-6-20,93.4,73.3,55.0,54.7,50.2,41.4,85,50,17,29.83,29.75,11,1,11,0.00
2013-6-21,92.7,74.1,56.0,53.7,48.8,40.0,81,47,18,29.87,29.78,11,1,11,0.00
2013-6-22,91.8,72.7,55.7,55.9,51.5,47.6,83,52,24,29.88,29.76,9,0,9,0.00
2013-6-23,82.2,64.9,56.9,59.1,54.8,51.2,89,72,38,29.86,29.79,7,0,7,0.00
2013-6-24,81.6,67.5,59.5,57.0,55.2,53.7,84,67,40,29.93,29.78,10,0,10,0.00
2013-6-25,89.9,72.2,56.5,60.0,57.1,53.3,91,63,34,29.97,29.87,11,0,11,0.00
2013-6-26,99.9,80.0,61.0,62.9,58.9,55.7,88,54,24,29.94,29.86,10,0,10,0.00
2013-6-27,104.4,83.8,64.5,61.4,58.5,53.7,82,48,21,29.98,29.91,7,0,11,0.00
2013-6-28,82.4,69.6,65.0,60.8,56.7,48.0,73,64,34,29.95,29.91,3,0,3,0.00
2013-6-29,109.9,88.2,67.1,63.4,55.9,47.0,71,38,13,29.83,29.70,10,0,10,0.00
2013-6-30,111.9,88.8,70.9,63.5,57.9,51.1,64,40,15,29.75,29.66,10,0,10,0.00
2013-7-1,102.8,85.7,70.6,64.6,60.2,53.4,76,47,21,29.85,29.72,8,0,8,0.00
2013-7-2,103.1,79.1,67.4,61.9,57.9,53.9,73,52,21,29.91,29.83,8,0,8,0.00
2013-7-3,100.2,86.6,72.0,71.4,58.6,47.4,63,42,22,29.89,29.74,5,0,6,0.00
2013-7-4,102.3,81.4,64.8,61.5,55.8,43.0,82,48,19,29.82,29.67,8,0,8,0.00
2013-7-5,96.8,77.5,61.5,62.7,58.3,53.1,88,56,24,29.80,29.70,8,0,8,0.00
2013-7-6,97.5,77.3,61.8,64.8,59.9,55.2,90,60,25,29.79,29.69,9,0,10,0.00
2013-7-7,101.5,79.4,61.2,61.7,58.5,50.3,91,56,19,29.81,29.71,8,0,8,0.00
2013-7-8,95.1,70.7,61.0,60.3,57.2,53.0,84,66,27,29.88,29.81,6,0,6,0.00
2013-7-9,106.5,95.0,75.8,61.1,55.4,48.8,56,29,16,29.92,29.86,14,1,14,0.00
2013-7-11,84.3,77.9,70.8,63.7,62.4,57.9,76,60,42,29.96,29.83,5,0,6,0.00
2013-7-12,97.1,77.2,66.6,65.2,62.9,57.6,88,66,27,29.89,29.80,10,0,10,0.00
2013-7-13,99.0,92.5,80.1,59.8,55.6,51.1,49,30,22,29.90,29.80,5,1,9,0.00
2013-7-16,98.0,82.2,65.5,53.0,47.0,39.2,64,33,15,29.95,29.83,8,1,8,0.00
2013-7-17,99.4,77.2,55.3,53.1,43.8,28.6,75,38,10,30.00,29.90,10,0,10,0.00
2013-7-18,99.2,77.4,58.1,57.9,47.3,37.2,67,39,12,29.96,29.81,11,0,11,0.00
2013-7-19,80.7,66.4,61.8,59.1,56.2,54.3,78,70,44,29.87,29.81,4,0,4,0.00
2013-7-20,87.2,72.7,64.2,72.7,63.1,58.0,92,73,51,29.85,29.74,7,0,7,0.20
2013-7-21,82.0,74.3,67.6,66.7,65.0,62.5,92,74,56,29.91,29.83,6,0,6,0.06
2013-7-22,94.5,77.1,64.5,68.1,63.8,60.0,94,68,35,29.94,29.86,13,1,14,0.00
2013-7-23,95.4,78.4,64.2,64.9,60.7,54.5,87,59,26,29.99,29.87,13,0,13,0.00
2013-7-25,98.7,79.6,62.6,64.4,58.9,55.5,86,54,26,29.95,29.86,12,0,12,0.00
2013-7-26,88.0,76.5,67.4,65.2,61.7,59.4,78,62,42,30.05,29.92,6,0,6,0.00
2013-7-27,97.3,79.2,64.7,64.0,60.4,58.2,84,56,28,29.97,29.81,11,0,11,0.00
2013-7-28,94.5,75.1,61.2,63.8,57.6,49.2,89,60,26,29.89,29.78,9,0,9,0.00
2013-7-29,94.3,73.3,55.9,60.8,55.3,50.2,92,60,23,29.99,29.86,7,0,8,0.00
2013-7-30,94.7,74.0,58.1,60.3,55.8,51.7,89,58,24,30.07,29.96,9,0,10,0.00
2013-7-31,92.3,72.4,57.6,60.2,56.2,53.8,88,61,30,30.07,29.93,10,0,10,0.00
2013-8-1,90.7,78.4,61.0,57.1,53.5,45.1,79,45,24,30.01,29.85,8,0,8,0.00
2013-8-2,91.4,72.0,55.7,59.8,54.9,48.9,91,60,26,29.94,29.85,10,0,10,0.00
2013-8-3,93.4,72.2,55.1,60.4,55.2,46.4,93,61,23,29.97,29.86,11,0,11,0.00
2013-8-4,95.9,73.8,57.2,60.5,54.3,42.0,92,58,18,29.99,29.87,10,0,10,0.00
2013-8-5,96.8,75.3,55.3,57.2,51.4,39.2,83,51,15,29.97,29.86,10,0,10,0.00
2013-8-6,91.4,67.5,55.4,56.4,52.9,35.4,90,66,15,29.99,29.90,11,0,11,0.00
2013-8-7,93.8,69.6,55.4,54.3,49.9,36.3,88,61,15,30.01,29.93,10,0,10,0.00
2013-8-8,94.6,72.8,52.8,53.7,46.8,37.9,80,47,15,29.97,29.86,2,0,13,0.00
2013-8-9,92.1,71.4,53.3,57.7,51.7,45.5,90,58,22,29.93,29.84,12,1,12,0.00
2013-8-10,88.9,68.1,54.3,55.3,52.2,43.0,90,62,21,30.00,29.91,2,0,10,0.00
2013-8-11,61.8,61.2,60.7,54.2,53.8,53.5,77,76,76,29.96,29.95,0,0,0,0.00
2013-8-17,102.4,81.4,63.6,59.3,55.6,49.9,78,47,20,29.92,29.75,2,0,11,0.00
2013-8-18,102.2,81.6,65.6,59.7,56.1,52.1,70,46,23,29.83,29.74,1,0,11,0.00
2013-8-19,98.6,79.5,66.4,64.8,60.9,58.8,90,57,28,29.89,29.77,1,0,7,0.03
2013-8-20,101.0,79.8,64.3,60.7,56.9,46.8,86,52,17,29.88,29.78,2,0,10,0.00
2013-8-21,104.4,80.7,61.5,57.5,53.3,48.0,80,46,17,29.88,29.77,1,0,11,0.00
2013-8-22,103.3,81.6,63.5,55.0,49.4,39.7,67,38,15,29.88,29.75,2,0,16,0.00
2013-8-23,102.9,80.4,62.0,53.4,49.1,42.5,66,39,15,29.83,29.68,2,0,11,0.00
2013-9-3,102.6,85.2,70.6,65.2,62.3,56.8,80,51,24,29.86,29.76,1,0,8,0.00
2013-9-4,102.8,84.4,69.1,64.0,60.5,56.8,77,49,25,29.89,29.78,4,1,14,0.00
2013-9-5,105.5,85.8,71.0,64.0,58.9,56.1,70,44,21,29.86,29.76,5,1,17,0.00
2013-9-6,101.9,84.9,70.9,61.1,56.3,52.4,67,41,20,29.84,29.74,1,0,7,0.00
2013-9-7,100.6,82.5,70.1,68.7,60.6,55.5,70,50,24,29.84,29.76,4,1,14,0.00
2013-9-8,99.9,81.3,66.3,64.6,56.4,45.5,77,49,16,29.82,29.69,2,0,11,0.00
2013-9-9,95.4,78.6,67.8,60.8,55.6,48.6,72,49,21,29.77,29.67,4,0,14,0.00
2013-9-10,67.6,67.4,67.3,55.2,55.1,54.8,65,65,64,29.76,29.75,0,0,0,0.00
2013-10-28,55.9,55.9,55.9,49.5,49.5,49.5,79,79,79,29.78,29.78,5,2,5,0.46
2013-12-24,120.0,58.2,48.9,75.6,32.9,30.4,53,41,16,1017.30,30.06,1,0,3,0.00
2013-12-25,75.8,53.7,42.8,32.4,26.6,20.2,61,38,16,30.21,30.12,2,0,7,0.00
2013-12-26,78.8,55.9,41.2,26.4,19.5,14.2,47,27,9,30.17,30.03,2,0,7,0.00
2013-12-27,83.4,57.7,42.8,29.2,20.4,12.5,38,25,10,30.15,30.00,2,0,5,0.00
2013-12-28,76.1,57.6,43.3,31.0,24.3,18.4,44,29,14,30.00,29.86,2,0,7,0.00
2013-12-29,43.5,42.9,42.6,23.0,22.7,22.2,45,44,43,29.94,29.94,1,0,1,0.00
2013-12-31,62.4,48.6,42.9,28.2,25.1,22.2,48,40,25,30.10,30.05,0,0,1,0.00
2014-1-1,81.1,56.1,40.9,31.5,24.4,19.0,49,33,11,30.10,29.99,1,0,5,0.00
2014-1-2,81.4,58.5,45.5,34.4,28.2,24.3,48,34,14,30.09,29.93,1,0,5,0.00